sensor_id;sensor_type;location;lat;lon;timestamp;temperature;humidity
7588;DHT22;3835;48.850;8.938;2023-09-18T00:02:07;19.10;99.90
7588;DHT22;3835;48.850;8.938;2023-09-18T00:04:34;19.10;99.90
7588;DHT22;3835;48.850;8.938;2023-09-18T00:07:01;19.10;99.90
7588;DHT22;3835;48.850;8.938;2023-09-18T00:09:28;19.20;99.90
7588;DHT22;3835;48.850;8.938;2023-09-18T00:11:54;19.20;99.90
7588;DHT22;3835;48.850;8.938;2023-09-18T00:14:21;19.30;99.90
7588;DHT22;3835;48.850;8.938;2023-09-18T00:16:48;19.40;99.90
7588;DHT22;3835;48.850;8.938;2023-09-18T00:19:18;19.50;99.90
7588;DHT22;3835;48.850;8.938;2023-09-18T00:21:45;19.50;99.90
7588;DHT22;3835;48.850;8.938;2023-09-18T00:24:12;19.60;99.90
7588;DHT22;3835;48.850;8.938;2023-09-18T00:26:39;19.60;99.90
7588;DHT22;3835;48.850;8.938;2023-09-18T00:29:06;19.50;99.90
7588;DHT22;3835;48.850;8.938;2023-09-18T00:31:33;19.50;99.90
7588;DHT22;3835;48.850;8.938;2023-09-18T00:33:59;19.40;99.90
7588;DHT22;3835;48.850;8.938;2023-09-18T00:36:27;19.40;99.90
7588;DHT22;3835;48.850;8.938;2023-09-18T00:38:54;19.40;99.90
7588;DHT22;3835;48.850;8.938;2023-09-18T00:41:21;19.40;99.90
7588;DHT22;3835;48.850;8.938;2023-09-18T00:43:48;19.50;99.90
7588;DHT22;3835;48.850;8.938;2023-09-18T00:46:14;19.50;99.90
7588;DHT22;3835;48.850;8.938;2023-09-18T00:48:41;19.70;99.90
7588;DHT22;3835;48.850;8.938;2023-09-18T00:51:08;19.50;99.90
7588;DHT22;3835;48.850;8.938;2023-09-18T00:53:37;19.60;99.90
7588;DHT22;3835;48.850;8.938;2023-09-18T00:56:04;19.60;99.90
7588;DHT22;3835;48.850;8.938;2023-09-18T00:58:33;19.70;99.90
7588;DHT22;3835;48.850;8.938;2023-09-18T01:01:00;19.70;99.90
7588;DHT22;3835;48.850;8.938;2023-09-18T01:03:27;19.70;99.90
7588;DHT22;3835;48.850;8.938;2023-09-18T01:05:54;19.70;99.90
7588;DHT22;3835;48.850;8.938;2023-09-18T01:08:21;19.70;99.90
7588;DHT22;3835;48.850;8.938;2023-09-18T01:10:56;19.70;99.90
7588;DHT22;3835;48.850;8.938;2023-09-18T01:13:29;19.70;99.90
7588;DHT22;3835;48.850;8.938;2023-09-18T01:16:04;19.70;99.90
7588;DHT22;3835;48.850;8.938;2023-09-18T01:18:34;19.70;99.90
7588;DHT22;3835;48.850;8.938;2023-09-18T01:21:01;19.80;99.90
7588;DHT22;3835;48.850;8.938;2023-09-18T01:23:29;19.80;99.90
7588;DHT22;3835;48.850;8.938;2023-09-18T01:25:56;19.80;99.90
7588;DHT22;3835;48.850;8.938;2023-09-18T01:28:23;19.90;99.90
7588;DHT22;3835;48.850;8.938;2023-09-18T01:30:49;20.00;99.90
7588;DHT22;3835;48.850;8.938;2023-09-18T01:33:17;20.00;99.90
7588;DHT22;3835;48.850;8.938;2023-09-18T01:35:45;20.10;99.90
7588;DHT22;3835;48.850;8.938;2023-09-18T01:38:12;20.10;99.90
7588;DHT22;3835;48.850;8.938;2023-09-18T01:40:41;20.10;99.90
7588;DHT22;3835;48.850;8.938;2023-09-18T01:43:08;20.10;99.90
7588;DHT22;3835;48.850;8.938;2023-09-18T01:45:36;20.20;99.90
7588;DHT22;3835;48.850;8.938;2023-09-18T01:48:04;20.40;99.90
7588;DHT22;3835;48.850;8.938;2023-09-18T01:50:31;20.50;99.90
7588;DHT22;3835;48.850;8.938;2023-09-18T01:52:58;20.60;99.90
7588;DHT22;3835;48.850;8.938;2023-09-18T01:55:25;20.60;99.90
7588;DHT22;3835;48.850;8.938;2023-09-18T01:57:55;20.50;99.90
7588;DHT22;3835;48.850;8.938;2023-09-18T02:00:22;20.30;99.90
7588;DHT22;3835;48.850;8.938;2023-09-18T02:02:48;20.10;99.90
7588;DHT22;3835;48.850;8.938;2023-09-18T02:05:15;20.00;99.90
7588;DHT22;3835;48.850;8.938;2023-09-18T02:07:42;19.90;99.90
7588;DHT22;3835;48.850;8.938;2023-09-18T02:10:09;19.80;99.90
7588;DHT22;3835;48.850;8.938;2023-09-18T02:12:38;19.60;99.90
7588;DHT22;3835;48.850;8.938;2023-09-18T02:15:07;19.40;99.90
7588;DHT22;3835;48.850;8.938;2023-09-18T02:17:36;19.30;99.90
7588;DHT22;3835;48.850;8.938;2023-09-18T02:20:04;19.30;99.90
7588;DHT22;3835;48.850;8.938;2023-09-18T02:22:37;19.30;99.90
7588;DHT22;3835;48.850;8.938;2023-09-18T02:25:06;19.20;99.90
7588;DHT22;3835;48.850;8.938;2023-09-18T02:27:32;19.20;99.90
7588;DHT22;3835;48.850;8.938;2023-09-18T02:29:59;19.20;99.90
7588;DHT22;3835;48.850;8.938;2023-09-18T02:32:27;19.20;99.90
7588;DHT22;3835;48.850;8.938;2023-09-18T02:34:55;19.10;99.90
7588;DHT22;3835;48.850;8.938;2023-09-18T02:37:22;19.10;99.90
7588;DHT22;3835;48.850;8.938;2023-09-18T02:39:49;19.10;99.90
7588;DHT22;3835;48.850;8.938;2023-09-18T02:42:16;19.10;99.90
7588;DHT22;3835;48.850;8.938;2023-09-18T02:44:43;19.00;99.90
7588;DHT22;3835;48.850;8.938;2023-09-18T02:47:09;19.00;99.90
7588;DHT22;3835;48.850;8.938;2023-09-18T02:49:37;19.00;99.90
7588;DHT22;3835;48.850;8.938;2023-09-18T02:52:05;18.90;99.90
7588;DHT22;3835;48.850;8.938;2023-09-18T02:54:31;18.90;99.90
7588;DHT22;3835;48.850;8.938;2023-09-18T02:56:58;18.80;99.90
7588;DHT22;3835;48.850;8.938;2023-09-18T02:59:25;18.70;99.90
7588;DHT22;3835;48.850;8.938;2023-09-18T03:01:52;18.70;99.90
7588;DHT22;3835;48.850;8.938;2023-09-18T03:04:19;18.70;99.90
7588;DHT22;3835;48.850;8.938;2023-09-18T03:06:47;18.70;99.90
7588;DHT22;3835;48.850;8.938;2023-09-18T03:09:14;18.70;99.90
7588;DHT22;3835;48.850;8.938;2023-09-18T03:11:42;18.60;99.90
7588;DHT22;3835;48.850;8.938;2023-09-18T03:14:09;18.70;99.90
7588;DHT22;3835;48.850;8.938;2023-09-18T03:16:36;18.80;99.90
7588;DHT22;3835;48.850;8.938;2023-09-18T03:19:03;18.80;99.90
7588;DHT22;3835;48.850;8.938;2023-09-18T03:21:30;18.80;99.90
7588;DHT22;3835;48.850;8.938;2023-09-18T03:24:00;18.70;99.90
7588;DHT22;3835;48.850;8.938;2023-09-18T03:26:26;18.70;99.90
7588;DHT22;3835;48.850;8.938;2023-09-18T03:28:53;18.70;99.90
7588;DHT22;3835;48.850;8.938;2023-09-18T03:31:20;18.60;99.90
7588;DHT22;3835;48.850;8.938;2023-09-18T03:33:47;18.70;99.90
7588;DHT22;3835;48.850;8.938;2023-09-18T03:36:13;18.70;99.90
7588;DHT22;3835;48.850;8.938;2023-09-18T03:38:40;18.80;99.90
7588;DHT22;3835;48.850;8.938;2023-09-18T03:41:08;18.80;99.90
7588;DHT22;3835;48.850;8.938;2023-09-18T03:43:35;18.80;99.90
7588;DHT22;3835;48.850;8.938;2023-09-18T03:46:05;18.80;99.90
7588;DHT22;3835;48.850;8.938;2023-09-18T03:48:32;18.90;99.90
7588;DHT22;3835;48.850;8.938;2023-09-18T03:51:03;18.90;99.90
7588;DHT22;3835;48.850;8.938;2023-09-18T03:53:30;18.90;99.90
7588;DHT22;3835;48.850;8.938;2023-09-18T03:55:56;18.90;99.90
7588;DHT22;3835;48.850;8.938;2023-09-18T03:58:24;19.00;99.90
7588;DHT22;3835;48.850;8.938;2023-09-18T04:00:52;19.00;99.90
7588;DHT22;3835;48.850;8.938;2023-09-18T04:03:19;19.10;99.90
7588;DHT22;3835;48.850;8.938;2023-09-18T04:05:46;19.10;99.90
7588;DHT22;3835;48.850;8.938;2023-09-18T04:08:12;19.20;99.90
7588;DHT22;3835;48.850;8.938;2023-09-18T04:10:39;19.30;99.90
7588;DHT22;3835;48.850;8.938;2023-09-18T04:13:06;19.40;99.90
7588;DHT22;3835;48.850;8.938;2023-09-18T04:15:35;19.40;99.90
7588;DHT22;3835;48.850;8.938;2023-09-18T04:18:03;19.50;99.90
7588;DHT22;3835;48.850;8.938;2023-09-18T04:20:31;19.70;99.90
7588;DHT22;3835;48.850;8.938;2023-09-18T04:23:17;19.80;99.90
7588;DHT22;3835;48.850;8.938;2023-09-18T04:25:44;19.70;99.90
7588;DHT22;3835;48.850;8.938;2023-09-18T04:28:11;19.70;99.90
7588;DHT22;3835;48.850;8.938;2023-09-18T04:30:40;19.60;99.90
7588;DHT22;3835;48.850;8.938;2023-09-18T04:33:15;19.60;99.90
7588;DHT22;3835;48.850;8.938;2023-09-18T04:35:43;19.40;99.90
7588;DHT22;3835;48.850;8.938;2023-09-18T04:38:10;19.30;99.90
7588;DHT22;3835;48.850;8.938;2023-09-18T04:40:37;19.20;99.90
7588;DHT22;3835;48.850;8.938;2023-09-18T04:43:04;19.10;99.90
7588;DHT22;3835;48.850;8.938;2023-09-18T04:45:30;19.00;99.90
7588;DHT22;3835;48.850;8.938;2023-09-18T04:47:57;18.90;99.90
7588;DHT22;3835;48.850;8.938;2023-09-18T04:50:26;18.80;99.90
7588;DHT22;3835;48.850;8.938;2023-09-18T04:52:53;18.80;99.90
7588;DHT22;3835;48.850;8.938;2023-09-18T04:55:21;18.80;99.90
7588;DHT22;3835;48.850;8.938;2023-09-18T04:57:48;18.70;99.90
7588;DHT22;3835;48.850;8.938;2023-09-18T05:00:15;18.70;99.90
7588;DHT22;3835;48.850;8.938;2023-09-18T05:02:42;18.70;99.90
7588;DHT22;3835;48.850;8.938;2023-09-18T05:05:09;18.60;99.90
7588;DHT22;3835;48.850;8.938;2023-09-18T05:07:37;18.50;99.90
7588;DHT22;3835;48.850;8.938;2023-09-18T05:10:05;18.30;99.90
7588;DHT22;3835;48.850;8.938;2023-09-18T05:12:32;18.30;99.90
7588;DHT22;3835;48.850;8.938;2023-09-18T05:14:58;18.30;99.90
7588;DHT22;3835;48.850;8.938;2023-09-18T05:17:40;18.20;99.90
7588;DHT22;3835;48.850;8.938;2023-09-18T05:20:08;18.20;99.90
7588;DHT22;3835;48.850;8.938;2023-09-18T05:22:38;18.20;99.90
7588;DHT22;3835;48.850;8.938;2023-09-18T05:25:05;18.20;99.90
7588;DHT22;3835;48.850;8.938;2023-09-18T05:27:32;18.30;99.90
7588;DHT22;3835;48.850;8.938;2023-09-18T05:29:59;18.30;99.90
7588;DHT22;3835;48.850;8.938;2023-09-18T05:32:25;18.40;99.90
7588;DHT22;3835;48.850;8.938;2023-09-18T05:34:52;18.30;99.90
7588;DHT22;3835;48.850;8.938;2023-09-18T05:37:19;18.30;99.90
7588;DHT22;3835;48.850;8.938;2023-09-18T05:39:47;18.30;99.90
7588;DHT22;3835;48.850;8.938;2023-09-18T05:42:14;18.30;99.90
7588;DHT22;3835;48.850;8.938;2023-09-18T05:44:41;18.30;99.90
7588;DHT22;3835;48.850;8.938;2023-09-18T05:47:08;18.30;99.90
7588;DHT22;3835;48.850;8.938;2023-09-18T05:49:35;18.30;99.90
7588;DHT22;3835;48.850;8.938;2023-09-18T05:52:02;18.30;99.90
7588;DHT22;3835;48.850;8.938;2023-09-18T05:54:29;18.30;99.90
7588;DHT22;3835;48.850;8.938;2023-09-18T05:56:57;18.30;99.90
7588;DHT22;3835;48.850;8.938;2023-09-18T05:59:24;18.30;99.90
7588;DHT22;3835;48.850;8.938;2023-09-18T06:01:51;18.30;99.90
7588;DHT22;3835;48.850;8.938;2023-09-18T06:04:19;18.30;99.90
7588;DHT22;3835;48.850;8.938;2023-09-18T06:06:46;18.30;99.90
7588;DHT22;3835;48.850;8.938;2023-09-18T06:09:13;18.40;99.90
7588;DHT22;3835;48.850;8.938;2023-09-18T06:11:40;18.50;99.90
7588;DHT22;3835;48.850;8.938;2023-09-18T06:14:09;18.60;99.90
7588;DHT22;3835;48.850;8.938;2023-09-18T06:16:36;18.70;99.90
7588;DHT22;3835;48.850;8.938;2023-09-18T06:19:03;18.70;99.90
7588;DHT22;3835;48.850;8.938;2023-09-18T06:21:30;18.70;99.90
7588;DHT22;3835;48.850;8.938;2023-09-18T06:23:56;18.70;99.90
7588;DHT22;3835;48.850;8.938;2023-09-18T06:26:23;18.80;99.90
7588;DHT22;3835;48.850;8.938;2023-09-18T06:28:50;18.80;99.90
7588;DHT22;3835;48.850;8.938;2023-09-18T06:31:19;18.90;99.90
7588;DHT22;3835;48.850;8.938;2023-09-18T06:33:45;18.90;99.90
7588;DHT22;3835;48.850;8.938;2023-09-18T06:36:13;18.90;99.90
7588;DHT22;3835;48.850;8.938;2023-09-18T06:38:40;19.00;99.90
7588;DHT22;3835;48.850;8.938;2023-09-18T06:41:07;19.00;99.90
7588;DHT22;3835;48.850;8.938;2023-09-18T06:43:33;19.10;99.90
7588;DHT22;3835;48.850;8.938;2023-09-18T06:46:00;19.10;99.90
7588;DHT22;3835;48.850;8.938;2023-09-18T06:48:28;19.20;99.90
7588;DHT22;3835;48.850;8.938;2023-09-18T06:50:57;19.30;99.90
7588;DHT22;3835;48.850;8.938;2023-09-18T06:53:25;19.40;99.90
7588;DHT22;3835;48.850;8.938;2023-09-18T06:55:52;19.40;99.90
7588;DHT22;3835;48.850;8.938;2023-09-18T06:58:19;19.40;99.90
7588;DHT22;3835;48.850;8.938;2023-09-18T07:00:46;19.50;99.90
7588;DHT22;3835;48.850;8.938;2023-09-18T07:03:13;19.50;99.90
7588;DHT22;3835;48.850;8.938;2023-09-18T07:05:41;19.50;99.90
7588;DHT22;3835;48.850;8.938;2023-09-18T07:08:08;19.60;99.90
7588;DHT22;3835;48.850;8.938;2023-09-18T07:10:37;19.60;99.90
7588;DHT22;3835;48.850;8.938;2023-09-18T07:13:04;19.60;99.90
7588;DHT22;3835;48.850;8.938;2023-09-18T07:15:31;19.60;99.90
7588;DHT22;3835;48.850;8.938;2023-09-18T07:17:57;19.60;99.90
7588;DHT22;3835;48.850;8.938;2023-09-18T07:20:24;19.60;99.90
7588;DHT22;3835;48.850;8.938;2023-09-18T07:22:52;19.70;99.90
7588;DHT22;3835;48.850;8.938;2023-09-18T07:25:19;19.70;99.90
7588;DHT22;3835;48.850;8.938;2023-09-18T07:27:46;19.70;99.90
7588;DHT22;3835;48.850;8.938;2023-09-18T07:30:14;19.80;99.90
7588;DHT22;3835;48.850;8.938;2023-09-18T07:32:43;19.90;99.90
7588;DHT22;3835;48.850;8.938;2023-09-18T07:35:10;19.90;99.90
7588;DHT22;3835;48.850;8.938;2023-09-18T07:37:37;19.80;99.90
7588;DHT22;3835;48.850;8.938;2023-09-18T07:40:06;19.90;99.90
7588;DHT22;3835;48.850;8.938;2023-09-18T07:42:33;19.90;99.90
7588;DHT22;3835;48.850;8.938;2023-09-18T07:45:00;19.90;99.90
7588;DHT22;3835;48.850;8.938;2023-09-18T07:47:27;19.80;99.90
7588;DHT22;3835;48.850;8.938;2023-09-18T07:49:54;19.90;99.90
7588;DHT22;3835;48.850;8.938;2023-09-18T07:52:20;19.90;99.90
7588;DHT22;3835;48.850;8.938;2023-09-18T07:54:47;20.00;99.90
7588;DHT22;3835;48.850;8.938;2023-09-18T07:57:15;20.10;99.90
7588;DHT22;3835;48.850;8.938;2023-09-18T07:59:42;20.20;99.90
7588;DHT22;3835;48.850;8.938;2023-09-18T08:02:09;20.20;99.90
7588;DHT22;3835;48.850;8.938;2023-09-18T08:04:37;20.20;99.90
7588;DHT22;3835;48.850;8.938;2023-09-18T08:07:04;20.30;99.90
7588;DHT22;3835;48.850;8.938;2023-09-18T08:09:32;20.40;99.90
7588;DHT22;3835;48.850;8.938;2023-09-18T08:12:02;20.40;99.90
7588;DHT22;3835;48.850;8.938;2023-09-18T08:14:30;20.30;99.90
7588;DHT22;3835;48.850;8.938;2023-09-18T08:16:57;20.30;99.90
7588;DHT22;3835;48.850;8.938;2023-09-18T08:19:24;20.20;99.90
7588;DHT22;3835;48.850;8.938;2023-09-18T08:21:53;20.20;99.90
7588;DHT22;3835;48.850;8.938;2023-09-18T08:24:20;20.10;99.90
7588;DHT22;3835;48.850;8.938;2023-09-18T08:26:47;20.00;99.90
7588;DHT22;3835;48.850;8.938;2023-09-18T08:29:13;19.90;99.90
7588;DHT22;3835;48.850;8.938;2023-09-18T08:31:42;19.90;99.90
7588;DHT22;3835;48.850;8.938;2023-09-18T08:34:09;19.70;99.90
7588;DHT22;3835;48.850;8.938;2023-09-18T08:36:35;19.70;99.90
7588;DHT22;3835;48.850;8.938;2023-09-18T08:39:03;19.60;99.90
7588;DHT22;3835;48.850;8.938;2023-09-18T08:41:32;19.60;99.90
7588;DHT22;3835;48.850;8.938;2023-09-18T08:44:01;19.50;99.90
7588;DHT22;3835;48.850;8.938;2023-09-18T08:46:29;19.30;99.90
7588;DHT22;3835;48.850;8.938;2023-09-18T08:48:57;19.10;99.90
7588;DHT22;3835;48.850;8.938;2023-09-18T08:51:26;18.90;99.90
7588;DHT22;3835;48.850;8.938;2023-09-18T08:53:54;18.70;99.90
7588;DHT22;3835;48.850;8.938;2023-09-18T08:56:21;18.60;99.90
7588;DHT22;3835;48.850;8.938;2023-09-18T08:58:49;18.50;99.90
7588;DHT22;3835;48.850;8.938;2023-09-18T09:01:16;18.40;99.90
7588;DHT22;3835;48.850;8.938;2023-09-18T09:03:43;18.40;99.90
7588;DHT22;3835;48.850;8.938;2023-09-18T09:06:12;18.40;99.90
7588;DHT22;3835;48.850;8.938;2023-09-18T09:08:39;18.40;99.90
7588;DHT22;3835;48.850;8.938;2023-09-18T09:11:06;18.40;99.90
7588;DHT22;3835;48.850;8.938;2023-09-18T09:13:33;18.20;99.90
7588;DHT22;3835;48.850;8.938;2023-09-18T09:16:00;18.20;99.90
7588;DHT22;3835;48.850;8.938;2023-09-18T09:18:28;18.20;99.90
7588;DHT22;3835;48.850;8.938;2023-09-18T09:20:57;18.10;99.90
7588;DHT22;3835;48.850;8.938;2023-09-18T09:23:27;18.10;99.90
7588;DHT22;3835;48.850;8.938;2023-09-18T09:25:56;18.00;99.90
7588;DHT22;3835;48.850;8.938;2023-09-18T09:28:37;18.00;99.90
7588;DHT22;3835;48.850;8.938;2023-09-18T09:31:05;18.00;99.90
7588;DHT22;3835;48.850;8.938;2023-09-18T09:33:32;18.00;99.90
7588;DHT22;3835;48.850;8.938;2023-09-18T09:35:59;18.00;99.90
7588;DHT22;3835;48.850;8.938;2023-09-18T09:38:30;18.10;99.90
7588;DHT22;3835;48.850;8.938;2023-09-18T09:40:59;18.20;99.90
7588;DHT22;3835;48.850;8.938;2023-09-18T09:43:27;18.20;99.90
7588;DHT22;3835;48.850;8.938;2023-09-18T09:45:57;18.50;99.90
7588;DHT22;3835;48.850;8.938;2023-09-18T09:48:24;18.60;99.90
7588;DHT22;3835;48.850;8.938;2023-09-18T09:50:52;18.80;99.90
7588;DHT22;3835;48.850;8.938;2023-09-18T09:53:45;18.90;99.90
7588;DHT22;3835;48.850;8.938;2023-09-18T09:56:14;18.90;99.90
7588;DHT22;3835;48.850;8.938;2023-09-18T09:58:44;19.10;99.90
7588;DHT22;3835;48.850;8.938;2023-09-18T10:01:12;19.30;99.90
7588;DHT22;3835;48.850;8.938;2023-09-18T10:03:43;19.50;99.90
7588;DHT22;3835;48.850;8.938;2023-09-18T10:06:11;19.50;99.90
7588;DHT22;3835;48.850;8.938;2023-09-18T10:08:39;19.60;99.90
7588;DHT22;3835;48.850;8.938;2023-09-18T10:11:08;19.70;99.90
7588;DHT22;3835;48.850;8.938;2023-09-18T10:13:41;19.70;99.90
7588;DHT22;3835;48.850;8.938;2023-09-18T10:16:12;19.40;99.90
7588;DHT22;3835;48.850;8.938;2023-09-18T10:18:47;19.30;99.90
7588;DHT22;3835;48.850;8.938;2023-09-18T10:21:25;19.10;99.90
7588;DHT22;3835;48.850;8.938;2023-09-18T10:23:59;19.00;99.90
7588;DHT22;3835;48.850;8.938;2023-09-18T10:26:32;18.90;99.90
7588;DHT22;3835;48.850;8.938;2023-09-18T10:29:04;18.80;99.90
7588;DHT22;3835;48.850;8.938;2023-09-18T10:31:37;18.70;99.90
7588;DHT22;3835;48.850;8.938;2023-09-18T10:34:06;18.70;99.90
7588;DHT22;3835;48.850;8.938;2023-09-18T10:36:34;18.70;99.90
7588;DHT22;3835;48.850;8.938;2023-09-18T10:39:03;18.70;99.90
7588;DHT22;3835;48.850;8.938;2023-09-18T10:41:35;18.80;99.90
7588;DHT22;3835;48.850;8.938;2023-09-18T10:44:03;18.70;99.90
7588;DHT22;3835;48.850;8.938;2023-09-18T10:46:31;18.80;99.90
7588;DHT22;3835;48.850;8.938;2023-09-18T10:48:59;18.70;99.90
7588;DHT22;3835;48.850;8.938;2023-09-18T10:51:28;18.70;99.90
7588;DHT22;3835;48.850;8.938;2023-09-18T10:53:56;18.60;99.90
7588;DHT22;3835;48.850;8.938;2023-09-18T10:56:25;18.60;99.90
7588;DHT22;3835;48.850;8.938;2023-09-18T10:59:02;18.60;99.90
7588;DHT22;3835;48.850;8.938;2023-09-18T11:01:31;18.60;99.90
7588;DHT22;3835;48.850;8.938;2023-09-18T11:04:01;18.60;99.90
7588;DHT22;3835;48.850;8.938;2023-09-18T11:06:29;18.60;99.90
7588;DHT22;3835;48.850;8.938;2023-09-18T11:09:01;18.60;99.90
7588;DHT22;3835;48.850;8.938;2023-09-18T11:11:31;18.70;99.90
7588;DHT22;3835;48.850;8.938;2023-09-18T11:14:03;18.60;99.90
7588;DHT22;3835;48.850;8.938;2023-09-18T11:16:38;18.70;99.90
7588;DHT22;3835;48.850;8.938;2023-09-18T11:19:09;18.90;99.90
7588;DHT22;3835;48.850;8.938;2023-09-18T11:21:38;19.00;99.90
7588;DHT22;3835;48.850;8.938;2023-09-18T11:24:07;19.10;99.90
7588;DHT22;3835;48.850;8.938;2023-09-18T11:26:39;19.20;99.90
7588;DHT22;3835;48.850;8.938;2023-09-18T11:29:12;19.30;99.90
7588;DHT22;3835;48.850;8.938;2023-09-18T11:31:46;19.30;99.90
7588;DHT22;3835;48.850;8.938;2023-09-18T11:34:20;19.20;99.90
7588;DHT22;3835;48.850;8.938;2023-09-18T11:36:49;19.20;99.90
7588;DHT22;3835;48.850;8.938;2023-09-18T11:39:37;19.30;99.90
7588;DHT22;3835;48.850;8.938;2023-09-18T11:42:10;19.20;99.90
7588;DHT22;3835;48.850;8.938;2023-09-18T11:44:40;19.30;99.90
7588;DHT22;3835;48.850;8.938;2023-09-18T11:47:12;19.20;99.90
7588;DHT22;3835;48.850;8.938;2023-09-18T11:49:47;19.40;99.90
7588;DHT22;3835;48.850;8.938;2023-09-18T11:52:17;19.40;99.90
7588;DHT22;3835;48.850;8.938;2023-09-18T11:54:48;19.60;99.90
7588;DHT22;3835;48.850;8.938;2023-09-18T11:57:19;19.80;99.90
7588;DHT22;3835;48.850;8.938;2023-09-18T11:59:49;19.80;99.90
7588;DHT22;3835;48.850;8.938;2023-09-18T12:02:26;19.80;99.90
7588;DHT22;3835;48.850;8.938;2023-09-18T12:05:05;19.70;99.90
7588;DHT22;3835;48.850;8.938;2023-09-18T12:07:32;19.50;99.90
7588;DHT22;3835;48.850;8.938;2023-09-18T12:10:02;19.40;99.90
7588;DHT22;3835;48.850;8.938;2023-09-18T12:12:35;19.30;99.90
7588;DHT22;3835;48.850;8.938;2023-09-18T12:15:04;19.30;99.90
7588;DHT22;3835;48.850;8.938;2023-09-18T12:17:32;19.30;99.90
7588;DHT22;3835;48.850;8.938;2023-09-18T12:19:59;19.60;99.90
7588;DHT22;3835;48.850;8.938;2023-09-18T12:22:31;19.70;99.90
7588;DHT22;3835;48.850;8.938;2023-09-18T12:31:15;20.10;99.90
7588;DHT22;3835;48.850;8.938;2023-09-18T12:36:23;20.40;99.90
7588;DHT22;3835;48.850;8.938;2023-09-18T12:38:57;20.50;99.90
7588;DHT22;3835;48.850;8.938;2023-09-18T12:41:24;20.50;99.90
7588;DHT22;3835;48.850;8.938;2023-09-18T12:43:52;20.60;99.90
7588;DHT22;3835;48.850;8.938;2023-09-18T12:46:21;20.80;99.90
7588;DHT22;3835;48.850;8.938;2023-09-18T12:48:49;21.00;99.90
7588;DHT22;3835;48.850;8.938;2023-09-18T12:51:17;21.10;99.90
7588;DHT22;3835;48.850;8.938;2023-09-18T12:53:58;21.30;99.90
7588;DHT22;3835;48.850;8.938;2023-09-18T12:56:25;21.40;99.90
7588;DHT22;3835;48.850;8.938;2023-09-18T12:58:52;21.20;99.90
7588;DHT22;3835;48.850;8.938;2023-09-18T13:01:18;21.10;99.90
7588;DHT22;3835;48.850;8.938;2023-09-18T13:03:48;21.10;99.90
7588;DHT22;3835;48.850;8.938;2023-09-18T13:06:17;21.10;99.90
7588;DHT22;3835;48.850;8.938;2023-09-18T13:08:44;21.20;99.90
7588;DHT22;3835;48.850;8.938;2023-09-18T13:11:11;21.20;99.90
7588;DHT22;3835;48.850;8.938;2023-09-18T13:13:40;21.30;99.90
7588;DHT22;3835;48.850;8.938;2023-09-18T13:16:08;21.30;99.90
7588;DHT22;3835;48.850;8.938;2023-09-18T13:18:35;21.20;99.90
7588;DHT22;3835;48.850;8.938;2023-09-18T13:21:10;21.30;99.90
7588;DHT22;3835;48.850;8.938;2023-09-18T13:23:38;21.20;99.90
7588;DHT22;3835;48.850;8.938;2023-09-18T13:26:06;21.20;99.90
7588;DHT22;3835;48.850;8.938;2023-09-18T13:28:33;21.10;99.90
7588;DHT22;3835;48.850;8.938;2023-09-18T13:31:01;21.20;99.90
7588;DHT22;3835;48.850;8.938;2023-09-18T13:33:30;21.30;99.90
7588;DHT22;3835;48.850;8.938;2023-09-18T13:35:57;21.30;99.90
7588;DHT22;3835;48.850;8.938;2023-09-18T13:38:26;21.40;99.90
7588;DHT22;3835;48.850;8.938;2023-09-18T13:40:53;21.40;99.90
7588;DHT22;3835;48.850;8.938;2023-09-18T13:43:21;21.50;99.90
7588;DHT22;3835;48.850;8.938;2023-09-18T13:45:48;21.50;99.90
7588;DHT22;3835;48.850;8.938;2023-09-18T13:48:17;21.40;99.90
7588;DHT22;3835;48.850;8.938;2023-09-18T13:50:44;21.30;99.90
7588;DHT22;3835;48.850;8.938;2023-09-18T13:53:12;21.30;99.90
7588;DHT22;3835;48.850;8.938;2023-09-18T13:55:40;21.50;99.90
7588;DHT22;3835;48.850;8.938;2023-09-18T13:58:07;21.60;99.90
7588;DHT22;3835;48.850;8.938;2023-09-18T14:00:34;21.40;99.90
7588;DHT22;3835;48.850;8.938;2023-09-18T14:03:02;21.30;99.90
7588;DHT22;3835;48.850;8.938;2023-09-18T14:05:29;21.30;99.90
7588;DHT22;3835;48.850;8.938;2023-09-18T14:07:58;21.10;99.90
7588;DHT22;3835;48.850;8.938;2023-09-18T14:10:26;20.90;99.90
7588;DHT22;3835;48.850;8.938;2023-09-18T14:12:55;20.80;99.90
7588;DHT22;3835;48.850;8.938;2023-09-18T14:15:22;21.00;99.90
7588;DHT22;3835;48.850;8.938;2023-09-18T14:17:49;21.00;99.90
7588;DHT22;3835;48.850;8.938;2023-09-18T14:20:16;20.90;99.90
7588;DHT22;3835;48.850;8.938;2023-09-18T14:22:45;21.00;99.90
7588;DHT22;3835;48.850;8.938;2023-09-18T14:25:12;21.10;99.90
7588;DHT22;3835;48.850;8.938;2023-09-18T14:27:39;21.20;99.90
7588;DHT22;3835;48.850;8.938;2023-09-18T14:30:09;21.30;99.90
7588;DHT22;3835;48.850;8.938;2023-09-18T14:32:37;21.40;99.90
7588;DHT22;3835;48.850;8.938;2023-09-18T14:35:05;21.60;99.90
7588;DHT22;3835;48.850;8.938;2023-09-18T14:37:33;21.70;99.90
7588;DHT22;3835;48.850;8.938;2023-09-18T14:40:00;21.70;99.90
7588;DHT22;3835;48.850;8.938;2023-09-18T14:42:28;21.90;99.90
7588;DHT22;3835;48.850;8.938;2023-09-18T14:44:54;22.00;99.90
7588;DHT22;3835;48.850;8.938;2023-09-18T14:47:22;22.00;99.90
7588;DHT22;3835;48.850;8.938;2023-09-18T14:49:49;21.80;99.90
7588;DHT22;3835;48.850;8.938;2023-09-18T14:52:16;21.90;99.90
7588;DHT22;3835;48.850;8.938;2023-09-18T14:54:44;21.80;99.90
7588;DHT22;3835;48.850;8.938;2023-09-18T14:57:10;21.50;99.90
7588;DHT22;3835;48.850;8.938;2023-09-18T14:59:37;21.30;99.90
7588;DHT22;3835;48.850;8.938;2023-09-18T15:02:04;21.10;99.90
7588;DHT22;3835;48.850;8.938;2023-09-18T15:04:33;21.00;99.90
7588;DHT22;3835;48.850;8.938;2023-09-18T15:07:00;21.10;99.90
7588;DHT22;3835;48.850;8.938;2023-09-18T15:09:28;21.10;99.90
7588;DHT22;3835;48.850;8.938;2023-09-18T15:11:54;21.10;99.90
7588;DHT22;3835;48.850;8.938;2023-09-18T15:14:21;21.10;99.90
7588;DHT22;3835;48.850;8.938;2023-09-18T15:16:48;21.10;99.90
7588;DHT22;3835;48.850;8.938;2023-09-18T15:19:15;21.10;99.90
7588;DHT22;3835;48.850;8.938;2023-09-18T15:21:43;21.10;99.90
7588;DHT22;3835;48.850;8.938;2023-09-18T15:24:10;21.00;99.90
7588;DHT22;3835;48.850;8.938;2023-09-18T15:26:37;21.00;99.90
7588;DHT22;3835;48.850;8.938;2023-09-18T15:29:04;21.00;99.90
7588;DHT22;3835;48.850;8.938;2023-09-18T15:31:30;21.00;99.90
7588;DHT22;3835;48.850;8.938;2023-09-18T15:33:57;20.90;99.90
7588;DHT22;3835;48.850;8.938;2023-09-18T15:36:24;20.90;99.90
7588;DHT22;3835;48.850;8.938;2023-09-18T15:38:52;20.80;99.90
7588;DHT22;3835;48.850;8.938;2023-09-18T15:41:20;20.80;99.90
7588;DHT22;3835;48.850;8.938;2023-09-18T15:43:47;20.70;99.90
7588;DHT22;3835;48.850;8.938;2023-09-18T15:46:14;20.70;99.90
7588;DHT22;3835;48.850;8.938;2023-09-18T15:48:43;20.70;99.90
7588;DHT22;3835;48.850;8.938;2023-09-18T15:51:09;20.70;99.90
7588;DHT22;3835;48.850;8.938;2023-09-18T15:53:36;20.60;99.90
7588;DHT22;3835;48.850;8.938;2023-09-18T15:56:04;20.50;99.90
7588;DHT22;3835;48.850;8.938;2023-09-18T15:58:32;20.50;99.90
7588;DHT22;3835;48.850;8.938;2023-09-18T16:01:00;20.40;99.90
7588;DHT22;3835;48.850;8.938;2023-09-18T16:03:28;20.30;99.90
7588;DHT22;3835;48.850;8.938;2023-09-18T16:05:54;20.20;99.90
7588;DHT22;3835;48.850;8.938;2023-09-18T16:08:21;20.10;99.90
7588;DHT22;3835;48.850;8.938;2023-09-18T16:10:48;19.90;99.90
7588;DHT22;3835;48.850;8.938;2023-09-18T16:13:17;19.90;99.90
7588;DHT22;3835;48.850;8.938;2023-09-18T16:15:44;19.80;99.90
7588;DHT22;3835;48.850;8.938;2023-09-18T16:18:11;19.70;99.90